createdAt,value
2022-11-29T00:01:33.782Z,9.23
2022-11-29T00:04:25.439Z,9.83
2022-11-29T00:07:17.116Z,9.83
2022-11-29T00:10:11.351Z,10.65
2022-11-29T00:13:02.839Z,10.08
2022-11-29T00:15:54.383Z,10.23
2022-11-29T00:18:47.461Z,9.45
2022-11-29T00:24:22.454Z,10.13
2022-11-29T00:27:14.090Z,10.38
2022-11-29T00:30:06.940Z,9.85
2022-11-29T00:32:58.722Z,9.60
2022-11-29T00:35:50.374Z,10.15
2022-11-29T00:38:42.193Z,9.78
2022-11-29T00:41:34.448Z,9.43
2022-11-29T00:44:25.916Z,9.53
2022-11-29T00:49:57.845Z,10.15
2022-11-29T00:55:34.923Z,9.65
2022-11-29T01:01:17.306Z,9.43
2022-11-29T01:04:08.894Z,10.40
2022-11-29T01:07:00.465Z,9.48
2022-11-29T01:09:51.957Z,9.98
2022-11-29T01:12:46.104Z,9.40
2022-11-29T01:21:04.142Z,10.10
2022-11-29T01:23:55.721Z,9.35
2022-11-29T01:26:47.099Z,9.98
2022-11-29T01:29:38.640Z,10.00
2022-11-29T01:32:30.400Z,10.78
2022-11-29T01:35:21.511Z,10.13
2022-11-29T01:38:12.862Z,9.40
2022-11-29T01:41:06.849Z,10.40
2022-11-29T01:44:01.564Z,9.75
2022-11-29T01:46:53.010Z,9.83
2022-11-29T01:49:48.067Z,9.63
2022-11-29T01:52:40.504Z,9.73
2022-11-29T01:55:32.540Z,9.48
2022-11-29T01:58:24.708Z,9.03
2022-11-29T02:01:19.026Z,9.43
2022-11-29T02:04:10.635Z,9.05
2022-11-29T02:07:02.023Z,9.45
2022-11-29T02:09:57.554Z,8.83
2022-11-29T02:12:59.846Z,9.28
2022-11-29T02:19:03.718Z,9.08
2022-11-29T02:24:59.890Z,8.25
2022-11-29T02:31:43.069Z,9.80
2022-11-29T02:34:54.660Z,9.50
2022-11-29T02:38:26.445Z,9.50
2022-11-29T02:41:26.362Z,9.95
2022-11-29T02:44:26.837Z,9.35
2022-11-29T02:50:13.843Z,11.38
2022-11-29T02:53:10.102Z,10.53
2022-11-29T02:56:07.293Z,10.85
2022-11-29T02:59:03.043Z,10.43
2022-11-29T03:04:39.566Z,10.95
2022-11-29T03:07:35.280Z,10.80
2022-11-29T03:10:32.936Z,11.50
2022-11-29T03:13:27.725Z,10.93
2022-11-29T03:16:24.931Z,11.18
2022-11-29T03:19:34.834Z,11.10
2022-11-29T03:22:32.338Z,11.43
2022-11-29T03:25:28.083Z,10.98
2022-11-29T03:28:22.621Z,10.15
2022-11-29T03:31:17.605Z,9.85
2022-11-29T03:37:07.579Z,9.63
2022-11-29T03:40:04.354Z,8.88
2022-11-29T03:45:39.019Z,2.83
2022-11-29T03:48:35.116Z,5.17
2022-11-29T03:51:30.119Z,7.45
2022-11-29T03:54:25.139Z,6.83
2022-11-29T03:57:19.595Z,8.33
2022-11-29T04:00:14.608Z,7.25
2022-11-29T04:03:29.905Z,1.92
2022-11-29T04:06:34.618Z,8.30
2022-11-29T04:09:50.704Z,6.00
2022-11-29T04:15:49.788Z,0.75
2022-11-29T04:19:12.706Z,1.65
2022-11-29T04:25:33.787Z,6.85
2022-11-29T04:32:23.348Z,2.90
2022-11-29T04:38:49.495Z,3.70
2022-11-29T04:42:11.807Z,0.80
2022-11-29T04:45:58.843Z,4.22
2022-11-29T04:51:47.243Z,0.80
2022-11-29T04:54:41.591Z,0.45
2022-11-29T04:57:39.292Z,1.12
2022-11-29T05:00:33.549Z,0.60
2022-11-29T05:03:29.453Z,0.30
2022-11-29T05:06:26.672Z,0.55
2022-11-29T05:12:15.752Z,0.53
2022-11-29T05:15:27.904Z,0.50
2022-11-29T05:18:22.721Z,0.40
2022-11-29T05:23:56.425Z,0.60
2022-11-29T05:26:51.689Z,0.45
2022-11-29T05:29:46.044Z,0.60
2022-11-29T05:39:05.052Z,0.40
2022-11-29T05:42:05.941Z,0.40
2022-11-29T05:45:02.300Z,0.45
2022-11-29T05:47:57.845Z,0.20
2022-11-29T05:53:31.828Z,0.10
2022-11-29T05:59:13.211Z,0.53
2022-11-29T06:02:09.070Z,0.28
2022-11-29T06:05:09.989Z,0.30
2022-11-29T06:08:07.333Z,0.30
2022-11-29T06:13:54.805Z,0.20
2022-11-29T06:17:13.028Z,0.20
2022-11-29T06:20:50.949Z,0.20
2022-11-29T06:27:16.441Z,0.10
2022-11-29T06:30:14.539Z,0.10
2022-11-29T06:38:32.554Z,0.20
2022-11-29T06:44:13.841Z,0.03
2022-11-29T06:47:09.403Z,0.10
2022-11-29T06:50:04.957Z,0.10
2022-11-29T06:55:40.230Z,0.10
2022-11-29T07:07:26.653Z,0.20
2022-11-29T07:10:21.243Z,0.10
2022-11-29T07:13:15.322Z,0.10
2022-11-29T07:18:53.927Z,0.20
2022-11-29T07:24:45.012Z,0.10
2022-11-29T07:30:31.006Z,0.10
2022-11-29T07:33:25.145Z,0.10
2022-11-29T07:39:03.296Z,0.10
2022-11-29T07:44:44.552Z,0.10
2022-11-29T07:50:24.095Z,0.10
2022-11-29T07:53:18.351Z,0.10
2022-11-29T07:58:49.528Z,0.40
2022-11-29T08:01:41.392Z,0.10
2022-11-29T08:04:33.036Z,0.28
2022-11-29T08:10:11.009Z,0.20
2022-11-29T08:13:02.426Z,0.20
2022-11-29T08:18:38.705Z,0.10
2022-11-29T08:21:30.470Z,0.10
2022-11-29T08:24:22.544Z,0.20
2022-11-29T08:27:17.506Z,0.20
2022-11-29T08:30:10.867Z,0.03
2022-11-29T08:33:02.720Z,0.13
2022-11-29T08:35:54.184Z,0.20
2022-11-29T08:41:25.730Z,0.10
2022-11-29T08:44:18.356Z,0.20
2022-11-29T08:47:28.347Z,0.10
2022-11-29T08:53:19.251Z,0.10
2022-11-29T08:58:50.361Z,0.20
2022-11-29T09:01:44.273Z,0.20
2022-11-29T09:04:36.334Z,0.28
2022-11-29T09:10:09.102Z,0.10
2022-11-29T09:13:01.006Z,0.10
2022-11-29T09:18:51.253Z,0.10
2022-11-29T09:21:41.079Z,0.20
2022-11-29T09:24:36.058Z,0.17
2022-11-29T09:27:28.005Z,0.20
2022-11-29T09:30:43.390Z,0.15
2022-11-29T09:33:35.603Z,0.15
2022-11-29T09:39:10.340Z,0.20
2022-11-29T09:44:59.608Z,0.33
2022-11-29T09:54:10.943Z,0.50
2022-11-29T09:57:10.175Z,0.20
2022-11-29T10:00:00.434Z,0.10
2022-11-29T10:02:55.470Z,0.40
2022-11-29T10:08:30.111Z,0.20
2022-11-29T10:14:10.638Z,0.20
2022-11-29T10:17:05.928Z,0.28
2022-11-29T10:22:48.339Z,0.28
2022-11-29T10:28:24.619Z,0.40
2022-11-29T10:34:10.616Z,0.20
2022-11-29T10:39:44.934Z,0.20
2022-11-29T10:42:54.122Z,0.20
2022-11-29T10:48:33.678Z,0.20
2022-11-29T10:51:25.633Z,0.20
2022-11-29T10:54:31.509Z,0.30
2022-11-29T10:57:24.744Z,0.20
2022-11-29T11:00:18.277Z,0.20
2022-11-29T11:03:20.002Z,0.20
2022-11-29T11:09:00.667Z,0.30
2022-11-29T11:11:57.849Z,0.20
2022-11-29T11:14:51.540Z,0.20
2022-11-29T11:17:44.803Z,0.40
2022-11-29T11:20:38.666Z,0.20
2022-11-29T11:23:32.984Z,0.20
2022-11-29T11:29:05.617Z,0.60
2022-11-29T11:31:59.177Z,0.28
2022-11-29T11:34:55.058Z,3.20
2022-11-29T11:40:32.043Z,0.50
2022-11-29T11:46:17.726Z,3.95
2022-11-29T11:49:06.693Z,0.80
2022-11-29T11:51:58.416Z,3.12
2022-11-29T11:54:53.443Z,3.70
2022-11-29T11:57:44.871Z,2.30
2022-11-29T12:03:55.644Z,0.50
2022-11-29T12:09:39.545Z,0.80
2022-11-29T12:12:35.488Z,0.50
2022-11-29T12:15:30.377Z,1.77
2022-11-29T12:18:26.868Z,2.70
2022-11-29T12:21:21.283Z,2.40
2022-11-29T12:24:17.588Z,3.25
2022-11-29T12:27:15.714Z,3.30
2022-11-29T12:30:15.492Z,4.00
2022-11-29T12:33:15.493Z,3.50
2022-11-29T12:39:24.322Z,3.30
2022-11-29T12:42:20.383Z,3.45
2022-11-29T12:45:28.771Z,1.50
2022-11-29T12:54:26.068Z,4.37
2022-11-29T13:02:35.018Z,1.85
2022-11-29T13:05:33.981Z,2.47
2022-11-29T13:08:45.758Z,1.90
2022-11-29T13:11:42.121Z,1.57
2022-11-29T13:14:43.042Z,1.80
2022-11-29T13:20:28.364Z,2.20
2022-11-29T13:23:39.195Z,2.22
2022-11-29T13:26:17.229Z,1.47
2022-11-29T13:29:11.018Z,1.50
2022-11-29T13:32:04.489Z,1.47
2022-11-29T13:35:01.714Z,1.52
2022-11-29T13:37:56.370Z,1.95
2022-11-29T13:40:54.537Z,1.25
2022-11-29T13:43:49.318Z,1.67
2022-11-29T13:46:52.409Z,1.20
2022-11-29T13:49:57.271Z,0.80
2022-11-29T13:52:49.729Z,0.90
2022-11-29T13:55:47.454Z,1.05
2022-11-29T13:58:40.895Z,0.20
2022-11-29T14:01:35.274Z,0.60
2022-11-29T14:04:33.945Z,0.50
2022-11-29T14:07:26.038Z,0.60
2022-11-29T14:10:29.111Z,0.60
2022-11-29T14:13:17.954Z,0.80
2022-11-29T14:16:16.518Z,0.80
2022-11-29T14:19:33.530Z,0.30
2022-11-29T14:22:23.881Z,0.40
2022-11-29T14:25:50.411Z,0.40
2022-11-29T14:28:37.256Z,0.42
2022-11-29T14:32:06.437Z,0.40
2022-11-29T14:35:03.907Z,0.40
2022-11-29T14:38:06.746Z,0.50
2022-11-29T14:40:58.120Z,0.40
2022-11-29T14:43:50.194Z,0.45
2022-11-29T14:46:43.310Z,0.45
2022-11-29T14:49:41.964Z,0.30
2022-11-29T14:52:36.777Z,0.40
2022-11-29T14:55:39.250Z,0.40
2022-11-29T14:58:30.830Z,0.55
2022-11-29T15:01:23.841Z,0.68
2022-11-29T15:04:18.555Z,0.60
2022-11-29T15:09:54.798Z,0.35
2022-11-29T15:12:47.516Z,0.50
2022-11-29T15:15:48.927Z,0.60
2022-11-29T15:18:59.398Z,0.40
2022-11-29T15:21:56.883Z,0.50
2022-11-29T15:24:55.628Z,0.40
2022-11-29T15:27:55.785Z,0.40
2022-11-29T15:30:54.226Z,0.65
2022-11-29T15:33:47.692Z,0.50
2022-11-29T15:36:42.138Z,0.60
2022-11-29T15:39:35.999Z,0.37
2022-11-29T15:42:32.529Z,0.60
2022-11-29T15:45:30.069Z,0.50
2022-11-29T15:48:24.686Z,0.40
2022-11-29T15:51:21.347Z,0.40
2022-11-29T15:54:18.243Z,0.60
2022-11-29T15:57:12.781Z,0.50
2022-11-29T16:00:07.465Z,0.40
2022-11-29T16:03:01.817Z,0.90
2022-11-29T16:06:01.042Z,0.78
2022-11-29T16:08:53.209Z,0.75
2022-11-29T16:11:45.005Z,0.95
2022-11-29T16:14:36.617Z,0.80
2022-11-29T16:17:31.066Z,0.70
2022-11-29T16:20:28.827Z,0.65
2022-11-29T16:23:22.301Z,0.80
2022-11-29T16:26:16.717Z,0.95
2022-11-29T16:29:13.321Z,1.10
2022-11-29T16:32:17.075Z,0.70
2022-11-29T16:35:15.093Z,0.70
2022-11-29T16:38:07.588Z,0.60
2022-11-29T16:41:08.006Z,0.55
2022-11-29T16:43:59.944Z,1.20
2022-11-29T16:46:51.345Z,0.98
2022-11-29T16:49:43.391Z,0.70
2022-11-29T16:52:38.455Z,1.00
2022-11-29T16:55:30.149Z,0.70
2022-11-29T16:58:22.111Z,0.60
2022-11-29T17:01:20.524Z,0.60
2022-11-29T17:04:12.426Z,0.95
2022-11-29T17:07:07.311Z,1.10
2022-11-29T17:10:00.293Z,0.80
2022-11-29T17:12:52.144Z,0.65
2022-11-29T17:15:44.125Z,1.12
2022-11-29T17:18:36.813Z,2.42
2022-11-29T17:21:31.693Z,2.10
2022-11-29T17:24:27.024Z,1.00
2022-11-29T17:27:18.802Z,1.52
2022-11-29T17:30:12.779Z,1.60
2022-11-29T17:33:04.498Z,1.00
2022-11-29T17:35:56.825Z,1.60
2022-11-29T17:38:49.190Z,2.10
2022-11-29T17:41:42.461Z,2.98
2022-11-29T17:44:35.268Z,3.30
2022-11-29T17:47:26.717Z,3.55
2022-11-29T17:50:18.384Z,3.75
2022-11-29T17:53:10.302Z,3.50
2022-11-29T17:56:07.404Z,3.40
2022-11-29T17:59:00.303Z,3.30
2022-11-29T18:01:51.795Z,3.20
2022-11-29T18:04:44.487Z,2.90
2022-11-29T18:07:37.837Z,2.62
2022-11-29T18:10:30.123Z,2.42
2022-11-29T18:13:21.769Z,2.60
2022-11-29T18:16:21.359Z,3.33
2022-11-29T18:19:15.358Z,3.67
2022-11-29T18:22:07.024Z,2.45
2022-11-29T18:25:36.477Z,2.83
2022-11-29T18:27:57.445Z,2.58
2022-11-29T18:30:49.376Z,3.00
2022-11-29T18:33:41.979Z,4.15
2022-11-29T18:36:38.613Z,3.00
2022-11-29T18:42:12.852Z,3.70
2022-11-29T18:45:04.898Z,3.37
2022-11-29T18:47:56.658Z,7.17
2022-11-29T18:50:48.521Z,4.25
2022-11-29T18:53:40.934Z,4.03
2022-11-29T18:56:35.889Z,4.05
2022-11-29T18:59:27.098Z,4.70
2022-11-29T19:02:20.352Z,4.35
2022-11-29T19:05:13.263Z,3.55
2022-11-29T19:08:06.001Z,3.80
2022-11-29T19:10:57.121Z,3.52
2022-11-29T19:13:49.028Z,3.25
2022-11-29T19:16:42.036Z,3.60
2022-11-29T19:19:33.578Z,4.12
2022-11-29T19:22:25.246Z,4.28
2022-11-29T19:25:16.806Z,4.62
2022-11-29T19:28:13.933Z,4.75
2022-11-29T19:31:08.786Z,4.25
2022-11-29T19:34:00.581Z,4.17
2022-11-29T19:36:52.117Z,4.12
2022-11-29T19:39:44.940Z,3.77
2022-11-29T19:42:37.584Z,3.00
2022-11-29T19:45:30.084Z,3.25
2022-11-29T19:48:21.830Z,3.40
2022-11-29T19:51:15.832Z,3.50
2022-11-29T19:54:09.372Z,3.35
2022-11-29T19:57:01.770Z,3.52
2022-11-29T19:59:53.442Z,3.33
2022-11-29T20:02:45.179Z,3.52
2022-11-29T20:05:36.848Z,3.62
2022-11-29T20:08:28.557Z,3.72
2022-11-29T20:11:22.526Z,4.15
2022-11-29T20:14:14.813Z,3.95
2022-11-29T20:17:06.240Z,6.80
2022-11-29T20:19:58.182Z,6.60
2022-11-29T20:22:49.739Z,5.65
2022-11-29T20:25:41.408Z,6.70
2022-11-29T20:31:14.165Z,5.92
2022-11-29T20:34:06.838Z,5.03
2022-11-29T20:37:09.986Z,6.60
2022-11-29T20:40:04.983Z,5.20
2022-11-29T20:43:02.048Z,5.80
2022-11-29T20:45:54.159Z,5.78
2022-11-29T20:48:46.585Z,5.67
2022-11-29T20:51:41.383Z,5.87
2022-11-29T20:54:32.865Z,6.03
2022-11-29T20:57:24.514Z,5.75
2022-11-29T21:00:18.450Z,5.97
2022-11-29T21:03:10.336Z,5.83
2022-11-29T21:06:03.886Z,5.83
2022-11-29T21:08:56.590Z,5.67
2022-11-29T21:11:48.571Z,4.87
2022-11-29T21:14:41.974Z,4.25
2022-11-29T21:17:39.620Z,4.30
2022-11-29T21:20:31.696Z,4.83
2022-11-29T21:23:26.060Z,4.25
2022-11-29T21:26:20.676Z,4.30
2022-11-29T21:29:18.424Z,4.10
2022-11-29T21:32:19.204Z,4.35
2022-11-29T21:35:09.577Z,4.40
2022-11-29T21:38:03.449Z,4.53
2022-11-29T21:40:56.104Z,4.30
2022-11-29T21:44:05.977Z,4.20
2022-11-29T21:46:41.343Z,4.15
2022-11-29T21:49:33.172Z,4.35
2022-11-29T21:52:24.833Z,4.47
2022-11-29T21:55:16.654Z,5.30
2022-11-29T21:58:08.358Z,5.50
2022-11-29T22:01:01.218Z,5.85
2022-11-29T22:06:33.962Z,5.50
2022-11-29T22:09:25.488Z,6.58
2022-11-29T22:14:59.618Z,6.47
2022-11-29T22:17:53.022Z,5.97
2022-11-29T22:20:45.329Z,5.80
2022-11-29T22:23:37.343Z,5.35
2022-11-29T22:26:29.405Z,6.05
2022-11-29T22:29:21.173Z,5.35
2022-11-29T22:32:12.475Z,5.72
2022-11-29T22:35:04.082Z,5.40
2022-11-29T22:37:55.482Z,5.70
2022-11-29T22:40:46.877Z,5.67
2022-11-29T22:43:39.258Z,5.50
2022-11-29T22:46:35.684Z,6.08
2022-11-29T22:49:37.524Z,5.35
2022-11-29T22:52:29.743Z,5.47
2022-11-29T22:55:21.432Z,5.05
2022-11-29T22:58:12.737Z,4.70
2022-11-29T23:01:06.319Z,4.47
2022-11-29T23:03:59.673Z,4.42
2022-11-29T23:06:51.028Z,4.75
2022-11-29T23:09:44.589Z,4.60
2022-11-29T23:12:35.664Z,4.25
2022-11-29T23:15:30.266Z,4.53
2022-11-29T23:18:22.344Z,4.40
2022-11-29T23:21:15.685Z,4.58
2022-11-29T23:24:08.426Z,4.67
2022-11-29T23:27:00.491Z,5.20
2022-11-29T23:29:51.869Z,5.17
2022-11-29T23:32:43.553Z,4.92
2022-11-29T23:35:35.188Z,4.72
2022-11-29T23:38:26.644Z,5.20
2022-11-29T23:41:18.643Z,5.03
2022-11-29T23:44:11.248Z,5.12
2022-11-29T23:47:02.747Z,5.08
2022-11-29T23:49:54.520Z,5.33
2022-11-29T23:52:45.888Z,5.70
2022-11-29T23:55:37.354Z,5.97
2022-11-29T23:58:29.882Z,5.25
